Harbor Emperor — WCY6430 — position and weather

sailwx.info

Track history (hours):
 
Tides and Currents Weather Stations Pressure Air Temp Water Temp Dewpoint Dewpoint Depression Visibility Wind Speed Wind Dir Waves Ship Positions

Harbor Emperor

Owner: BLUE & GOLD FLEET, SAN FRANCISCO, CA. More information available from US FCC via Universal Licensing System and Coast Guard Vessel Documentation Center.

Last reported at 2015-Sep-05 13:32 UTC. Time now 2015-Sep-05 14:17 UTC.
Position N 37°49' W 122°25'.

Length 31 m.

Type: Passenger vessel. MMSI: 366985270.

Date/timePositionNaut miles runAvg speedWind from/ knotsBaromVisibWave heightAir tempDewpointWater temp
2015-Sep-05 13:32N 37°49' W 122°25'0 0.0
2015-Sep-05 12:32N 37°49' W 122°25'0 0.0
2015-Sep-05 11:23N 37°49' W 122°25'0 0.0
2015-Sep-05 10:32N 37°49' W 122°25'0 0.0
2015-Sep-05 09:32N 37°49' W 122°25'0 0.0
2015-Sep-05 08:32N 37°49' W 122°25'0 0.0
2015-Sep-05 07:32N 37°49' W 122°25'0 0.0
2015-Sep-05 06:29N 37°49' W 122°25'0 0.0
2015-Sep-05 05:32N 37°49' W 122°25'0 0.0
2015-Sep-05 04:32N 37°49' W 122°25'0 0.0
2015-Sep-05 03:32N 37°49' W 122°25'0 0.0
2015-Sep-05 02:32N 37°49' W 122°25'0 0.0
2015-Sep-05 01:32N 37°49' W 122°25'0 0.0
2015-Sep-05 00:29N 37°49' W 122°25'0 0.0
2015-Sep-04 23:32N 37°49' W 122°25'0 0.0
2015-Sep-04 22:32N 37°49' W 122°25'0 0.3
2015-Sep-04 21:33N 37°49' W 122°24'3 2.9
2015-Sep-04 20:33N 37°51' W 122°27'1 0.9
2015-Sep-04 19:33N 37°52' W 122°27'4 3.7
2015-Sep-04 18:34N 37°49' W 122°25'0 0.1
2015-Sep-04 17:32N 37°49' W 122°25'0 0.0
2015-Sep-04 16:32N 37°49' W 122°25'0 0.0
2015-Sep-04 15:32N 37°49' W 122°25'0 0.0
2015-Sep-04 14:32N 37°49' W 122°25'0 0.0
2015-Sep-04 13:32N 37°49' W 122°25'0 0.0
2015-Sep-04 12:32N 37°49' W 122°25'0 0.0
2015-Sep-04 11:32N 37°49' W 122°25'0 0.0
2015-Sep-04 10:32N 37°49' W 122°25'0 0.0
2015-Sep-04 09:26N 37°49' W 122°25'0 0.0
2015-Sep-04 08:32N 37°49' W 122°25'0 0.0
2015-Sep-04 07:32N 37°49' W 122°25'0 0.0
2015-Sep-04 06:32N 37°49' W 122°25'0 0.0
2015-Sep-04 05:32N 37°49' W 122°25'0 0.0
2015-Sep-04 04:32N 37°49' W 122°25'0 0.0
2015-Sep-04 03:32N 37°49' W 122°25'0 0.0
2015-Sep-04 02:32N 37°49' W 122°25'0 0.0
2015-Sep-04 01:32N 37°49' W 122°25'0 0.0
2015-Sep-04 00:29N 37°49' W 122°25'0 0.0
2015-Sep-03 23:32N 37°49' W 122°25'0 0.0
2015-Sep-03 22:32N 37°49' W 122°25'0 0.4
2015-Sep-03 21:33N 37°49' W 122°24'4 3.6
2015-Sep-03 20:33N 37°52' W 122°27'0 0.3
2015-Sep-03 19:34N 37°52' W 122°27'5 4.5
2015-Sep-03 18:34N 37°48' W 122°24'1 0.8
2015-Sep-03 17:33N 37°49' W 122°25'0 0.0
2015-Sep-03 16:32N 37°49' W 122°25'0 0.0
2015-Sep-03 15:29N 37°49' W 122°25'0 0.0
2015-Sep-03 14:32N 37°49' W 122°25'0 0.0
2015-Sep-03 13:23N 37°49' W 122°25'0 0.0
2015-Sep-03 12:32N 37°49' W 122°25'0 0.0
2015-Sep-03 11:31N 37°49' W 122°25'0 0.0
2015-Sep-03 10:31N 37°49' W 122°25'0 0.0
2015-Sep-03 09:28N 37°49' W 122°25'0 0.0
2015-Sep-03 08:32N 37°49' W 122°25'0 0.0
2015-Sep-03 07:32N 37°49' W 122°25'0 0.0
2015-Sep-03 06:28N 37°49' W 122°25'0 0.0
2015-Sep-03 05:32N 37°49' W 122°25'0 0.0
2015-Sep-03 04:29N 37°49' W 122°25'0 0.0
2015-Sep-03 03:28N 37°49' W 122°25'0 0.0
2015-Sep-03 02:28N 37°49' W 122°25'0 0.0
2015-Sep-03 01:32N 37°49' W 122°25'0 0.0
2015-Sep-03 00:31N 37°49' W 122°25'0 0.0
2015-Sep-02 23:31N 37°49' W 122°25'0 0.0
2015-Sep-02 22:28N 37°49' W 122°25'0 0.4
2015-Sep-02 21:34N 37°49' W 122°24'4 3.6
2015-Sep-02 20:33N 37°52' W 122°27'0 0.4
2015-Sep-02 19:34N 37°52' W 122°27'5 5.1
2015-Sep-02 18:33N 37°48' W 122°24'1 1.1
2015-Sep-02 17:29N 37°49' W 122°25'0 0.0
2015-Sep-02 16:32N 37°49' W 122°25'0 0.0
2015-Sep-02 15:29N 37°49' W 122°25'0 0.0
2015-Sep-02 14:29N 37°49' W 122°25'0 0.0
2015-Sep-02 13:32N 37°49' W 122°25'0 0.0
2015-Sep-02 12:32N 37°49' W 122°25'0 0.0
2015-Sep-02 11:32N 37°49' W 122°25'0 0.0
2015-Sep-02 10:29N 37°49' W 122°25'0 0.0
2015-Sep-02 09:32N 37°49' W 122°25'0 0.0
2015-Sep-02 08:32N 37°49' W 122°25'0 0.0
2015-Sep-02 07:29N 37°49' W 122°25'0 0.0
2015-Sep-02 06:32N 37°49' W 122°25'0 0.0
2015-Sep-02 05:32N 37°49' W 122°25'0 0.0
2015-Sep-02 04:29N 37°49' W 122°25'0 0.0
2015-Sep-02 03:32N 37°49' W 122°25'0 0.0
2015-Sep-02 02:32N 37°49' W 122°25'0 0.0
2015-Sep-02 01:29N 37°49' W 122°25'0 0.0
2015-Sep-02 00:29N 37°49' W 122°25'0 0.0
2015-Sep-01 23:32N 37°49' W 122°25'0 0.0
2015-Sep-01 22:28N 37°49' W 122°25'0 0.3
2015-Sep-01 21:34N 37°49' W 122°25'3 3.2
2015-Sep-01 20:33N 37°51' W 122°27'1 0.8
2015-Sep-01 19:34N 37°52' W 122°27'4 4.0
2015-Sep-01 18:34N 37°49' W 122°24'0 0.3
2015-Sep-01 17:33N 37°49' W 122°25'0 0.0
2015-Sep-01 16:33N 37°49' W 122°25'0 0.0
2015-Sep-01 15:33N 37°49' W 122°25'0 0.0
2015-Sep-01 14:33N 37°49' W 122°25'0 0.0
2015-Sep-01 13:33N 37°49' W 122°25'0 0.0
2015-Sep-01 12:33N 37°49' W 122°25'0 0.0
2015-Sep-01 11:33N 37°49' W 122°25'0 0.0
2015-Sep-01 10:33N 37°49' W 122°25'0 0.0
2015-Sep-01 09:33N 37°49' W 122°25'0 0.0
2015-Sep-01 08:33N 37°49' W 122°25'0 0.0
2015-Sep-01 07:33N 37°49' W 122°25'0 0.0
2015-Sep-01 06:33N 37°49' W 122°25'0 0.0
2015-Sep-01 05:33N 37°49' W 122°25'0 0.0
2015-Sep-01 04:33N 37°49' W 122°25'0 0.0
2015-Sep-01 03:33N 37°49' W 122°25'0 0.0
2015-Sep-01 02:33N 37°49' W 122°25'3 3.3
2015-Sep-01 01:33N 37°51' W 122°27'1 1.0
2015-Sep-01 00:34N 37°51' W 122°29'4 4.2
2015-Aug-31 23:34N 37°49' W 122°25'4 3.8
2015-Aug-31 22:33N 37°51' W 122°28'4 3.9
2015-Aug-31 21:33N 37°49' W 122°25'2 2.1
2015-Aug-31 20:33N 37°49' W 122°27'3 3.4
2015-Aug-31 19:33N 37°49' W 122°23'1 1.3
2015-Aug-31 18:34N 37°49' W 122°25'0 0.1
2015-Aug-31 17:33N 37°49' W 122°25'0 0.0
2015-Aug-31 02:23N 37°49' W 122°25'2 2.1
2015-Aug-31 01:34N 37°49' W 122°27'2 1.7
2015-Aug-31 00:34N 37°49' W 122°25'0 0.1
2015-Aug-30 23:33N 37°49' W 122°25'3 2.8
2015-Aug-30 22:33N 37°49' W 122°28'3 2.8
2015-Aug-30 21:33N 37°49' W 122°25'3 2.5
2015-Aug-30 20:34N 37°49' W 122°28'3 3.3
2015-Aug-30 19:34N 37°49' W 122°24'1 0.9
2015-Aug-30 18:33N 37°49' W 122°25'0 0.2
2015-Aug-30 17:33N 37°49' W 122°25'0 0.0
2015-Aug-30 16:33N 37°49' W 122°25'0 0.0
2015-Aug-30 15:33N 37°49' W 122°25'0 0.0
2015-Aug-30 14:33N 37°49' W 122°25'0 0.0
2015-Aug-30 13:33N 37°49' W 122°25'0 0.0
2015-Aug-30 12:33N 37°49' W 122°25'0 0.0
2015-Aug-30 11:33N 37°49' W 122°25'0 0.0
2015-Aug-30 10:33N 37°49' W 122°25'0 0.0
2015-Aug-30 09:33N 37°49' W 122°25'0 0.0
2015-Aug-30 08:33N 37°49' W 122°25'0 0.0
2015-Aug-30 07:33N 37°49' W 122°25'0 0.0
2015-Aug-30 06:33N 37°49' W 122°25'0 0.0
2015-Aug-30 05:33N 37°49' W 122°25'0 0.0
2015-Aug-30 04:33N 37°49' W 122°25'0 0.0
2015-Aug-30 03:33N 37°49' W 122°25'0 0.0
2015-Aug-30 02:33N 37°49' W 122°25'3 2.8
2015-Aug-30 01:33N 37°49' W 122°28'3 2.8
2015-Aug-30 00:33N 37°49' W 122°25'0 0.0
2015-Aug-29 23:33N 37°49' W 122°25'3 3.1
2015-Aug-29 22:34N 37°49' W 122°28'3 3.1
2015-Aug-29 21:33N 37°49' W 122°25'3 2.6
2015-Aug-29 20:33N 37°49' W 122°28'3 3.2
2015-Aug-29 19:33N 37°49' W 122°24'1 0.7
2015-Aug-29 18:34N 37°49' W 122°25'0 0.2
2015-Aug-29 17:32N 37°49' W 122°25'0 0.0
2015-Aug-29 16:32N 37°49' W 122°25'0 0.0
2015-Aug-29 15:32N 37°49' W 122°25'0 0.0
2015-Aug-29 14:32N 37°49' W 122°25'0 0.0
2015-Aug-29 13:32N 37°49' W 122°25'0 0.0
2015-Aug-29 12:32N 37°49' W 122°25'0 0.0
2015-Aug-29 11:29N 37°49' W 122°25'0 0.0
2015-Aug-29 10:32N 37°49' W 122°25'0 0.0
2015-Aug-29 09:32N 37°49' W 122°25'0 0.0
2015-Aug-29 08:32N 37°49' W 122°25'0 0.0
2015-Aug-29 07:32N 37°49' W 122°25'0 0.0
2015-Aug-29 06:32N 37°49' W 122°25'0 0.0
2015-Aug-29 05:32N 37°49' W 122°25'0 0.0
2015-Aug-29 04:23N 37°49' W 122°25'0 0.0
2015-Aug-29 03:26N 37°49' W 122°25'0 0.0
2015-Aug-29 02:32N 37°49' W 122°25'0 0.0
2015-Aug-29 01:32N 37°49' W 122°25'0 0.0
2015-Aug-29 00:32N 37°49' W 122°25'0 0.0
2015-Aug-28 23:26N 37°49' W 122°25'0 0.0
2015-Aug-28 22:32N 37°49' W 122°25'1 0.6
2015-Aug-28 21:33N 37°49' W 122°24'4 3.6
2015-Aug-28 20:33N 37°52' W 122°27'1 0.6
2015-Aug-28 19:33N 37°52' W 122°27'5 4.7
2015-Aug-28 18:33N 37°48' W 122°24'1 0.6
2015-Aug-28 17:29N 37°49' W 122°25'0 0.0
2015-Aug-28 16:32N 37°49' W 122°25'0 0.0
2015-Aug-28 15:29N 37°49' W 122°25'0 0.0
2015-Aug-28 14:32N 37°49' W 122°25'0 0.0
2015-Aug-28 13:32N 37°49' W 122°25'0 0.0
2015-Aug-28 12:32N 37°49' W 122°25'0 0.0
2015-Aug-28 11:32N 37°49' W 122°25'0 0.0
2015-Aug-28 10:32N 37°49' W 122°25'0 0.0
2015-Aug-28 09:32N 37°49' W 122°25'0 0.0
2015-Aug-28 08:32N 37°49' W 122°25'0 0.0
2015-Aug-28 07:32N 37°49' W 122°25'0 0.0
2015-Aug-28 06:32N 37°49' W 122°25'0 0.0
2015-Aug-28 05:32N 37°49' W 122°25'0 0.0
2015-Aug-28 04:32N 37°49' W 122°25'0 0.0
2015-Aug-28 03:29N 37°49' W 122°25'0 0.0
2015-Aug-28 02:32N 37°49' W 122°25'2 1.6
2015-Aug-28 01:33N 37°49' W 122°27'2 1.6
2015-Aug-28 00:33N 37°49' W 122°25'0 0.0
2015-Aug-27 23:33N 37°49' W 122°25'2 2.2
2015-Aug-27 22:33N 37°49' W 122°27'2 2.1
2015-Aug-27 21:33N 37°49' W 122°25'2 2.1
2015-Aug-27 20:33N 37°49' W 122°27'2 1.8
2015-Aug-27 19:33N 37°50' W 122°25'1 1.3
2015-Aug-27 18:30N 37°49' W 122°25'0 0.0
2015-Aug-27 17:29N 37°49' W 122°25'0 0.0
2015-Aug-27 16:32N 37°49' W 122°25'0 0.0
2015-Aug-27 15:23N 37°49' W 122°25'0 0.0
2015-Aug-27 14:29N 37°49' W 122°25'0 0.0
2015-Aug-27 13:32N 37°49' W 122°25'0 0.0
2015-Aug-27 12:32N 37°49' W 122°25'0 0.0
2015-Aug-27 11:32N 37°49' W 122°25'0 0.0
2015-Aug-27 10:32N 37°49' W 122°25'0 0.0
2015-Aug-27 09:32N 37°49' W 122°25'0 0.0
2015-Aug-27 08:29N 37°49' W 122°25'0 0.0
2015-Aug-27 07:32N 37°49' W 122°25'0 0.0
2015-Aug-27 06:32N 37°49' W 122°25'0 0.0
2015-Aug-27 05:29N 37°49' W 122°25'0 0.0
2015-Aug-27 04:32N 37°49' W 122°25'0 0.0
2015-Aug-27 03:32N 37°49' W 122°25'0 0.0
2015-Aug-27 02:32N 37°49' W 122°25'2 2.5
2015-Aug-27 01:34N 37°49' W 122°28'2 2.3
2015-Aug-27 00:31N 37°49' W 122°25'0 0.0
2015-Aug-26 23:31N 37°49' W 122°25'3 3.1
2015-Aug-26 22:33N 37°49' W 122°28'3 2.8
2015-Aug-26 21:31N 37°49' W 122°25'3 3.1
2015-Aug-26 20:33N 37°49' W 122°28'3 3.5
2015-Aug-26 19:33N 37°49' W 122°24'1 0.6
2015-Aug-26 18:28N 37°49' W 122°25'0 0.0
2015-Aug-26 17:28N 37°49' W 122°25'0 0.0
2015-Aug-26 16:28N 37°49' W 122°25'0 0.0
2015-Aug-26 15:31N 37°49' W 122°25'0 0.0
2015-Aug-26 14:28N 37°49' W 122°25'  
Track history (hours):
 
Tides and Currents Weather Stations Pressure Air Temp Water Temp Dewpoint Dewpoint Depression Visibility Wind Speed Wind Dir Waves Ship Positions

Harbor Emperor

Owner: BLUE & GOLD FLEET, SAN FRANCISCO, CA. More information available from US FCC via Universal Licensing System and Coast Guard Vessel Documentation Center.

Last reported at 2015-Sep-05 13:32 UTC. Time now 2015-Sep-05 14:17 UTC.
Position N 37°49' W 122°25'.

Length 31 m.

Type: Passenger vessel. MMSI: 366985270.

Date/timePositionNaut miles runAvg speedWind from/ knotsBaromVisibWave heightAir tempDewpointWater temp
2015-Sep-05 13:32N 37°49' W 122°25'0 0.0
2015-Sep-05 12:32N 37°49' W 122°25'0 0.0
2015-Sep-05 11:23N 37°49' W 122°25'0 0.0
2015-Sep-05 10:32N 37°49' W 122°25'0 0.0
2015-Sep-05 09:32N 37°49' W 122°25'0 0.0
2015-Sep-05 08:32N 37°49' W 122°25'0 0.0
2015-Sep-05 07:32N 37°49' W 122°25'0 0.0
2015-Sep-05 06:29N 37°49' W 122°25'0 0.0
2015-Sep-05 05:32N 37°49' W 122°25'0 0.0
2015-Sep-05 04:32N 37°49' W 122°25'0 0.0
2015-Sep-05 03:32N 37°49' W 122°25'0 0.0
2015-Sep-05 02:32N 37°49' W 122°25'0 0.0
2015-Sep-05 01:32N 37°49' W 122°25'0 0.0
2015-Sep-05 00:29N 37°49' W 122°25'0 0.0
2015-Sep-04 23:32N 37°49' W 122°25'0 0.0
2015-Sep-04 22:32N 37°49' W 122°25'0 0.3
2015-Sep-04 21:33N 37°49' W 122°24'3 2.9
2015-Sep-04 20:33N 37°51' W 122°27'1 0.9
2015-Sep-04 19:33N 37°52' W 122°27'4 3.7
2015-Sep-04 18:34N 37°49' W 122°25'0 0.1
2015-Sep-04 17:32N 37°49' W 122°25'0 0.0
2015-Sep-04 16:32N 37°49' W 122°25'0 0.0
2015-Sep-04 15:32N 37°49' W 122°25'0 0.0
2015-Sep-04 14:32N 37°49' W 122°25'0 0.0
2015-Sep-04 13:32N 37°49' W 122°25'0 0.0
2015-Sep-04 12:32N 37°49' W 122°25'0 0.0
2015-Sep-04 11:32N 37°49' W 122°25'0 0.0
2015-Sep-04 10:32N 37°49' W 122°25'0 0.0
2015-Sep-04 09:26N 37°49' W 122°25'0 0.0
2015-Sep-04 08:32N 37°49' W 122°25'0 0.0
2015-Sep-04 07:32N 37°49' W 122°25'0 0.0
2015-Sep-04 06:32N 37°49' W 122°25'0 0.0
2015-Sep-04 05:32N 37°49' W 122°25'0 0.0
2015-Sep-04 04:32N 37°49' W 122°25'0 0.0
2015-Sep-04 03:32N 37°49' W 122°25'0 0.0
2015-Sep-04 02:32N 37°49' W 122°25'0 0.0
2015-Sep-04 01:32N 37°49' W 122°25'0 0.0
2015-Sep-04 00:29N 37°49' W 122°25'0 0.0
2015-Sep-03 23:32N 37°49' W 122°25'0 0.0
2015-Sep-03 22:32N 37°49' W 122°25'0 0.4
2015-Sep-03 21:33N 37°49' W 122°24'4 3.6
2015-Sep-03 20:33N 37°52' W 122°27'0 0.3
2015-Sep-03 19:34N 37°52' W 122°27'5 4.5
2015-Sep-03 18:34N 37°48' W 122°24'1 0.8
2015-Sep-03 17:33N 37°49' W 122°25'0 0.0
2015-Sep-03 16:32N 37°49' W 122°25'0 0.0
2015-Sep-03 15:29N 37°49' W 122°25'0 0.0
2015-Sep-03 14:32N 37°49' W 122°25'0 0.0
2015-Sep-03 13:23N 37°49' W 122°25'0 0.0
2015-Sep-03 12:32N 37°49' W 122°25'0 0.0
2015-Sep-03 11:31N 37°49' W 122°25'0 0.0
2015-Sep-03 10:31N 37°49' W 122°25'0 0.0
2015-Sep-03 09:28N 37°49' W 122°25'0 0.0
2015-Sep-03 08:32N 37°49' W 122°25'0 0.0
2015-Sep-03 07:32N 37°49' W 122°25'0 0.0
2015-Sep-03 06:28N 37°49' W 122°25'0 0.0
2015-Sep-03 05:32N 37°49' W 122°25'0 0.0
2015-Sep-03 04:29N 37°49' W 122°25'0 0.0
2015-Sep-03 03:28N 37°49' W 122°25'0 0.0
2015-Sep-03 02:28N 37°49' W 122°25'0 0.0
2015-Sep-03 01:32N 37°49' W 122°25'0 0.0
2015-Sep-03 00:31N 37°49' W 122°25'0 0.0
2015-Sep-02 23:31N 37°49' W 122°25'0 0.0
2015-Sep-02 22:28N 37°49' W 122°25'0 0.4
2015-Sep-02 21:34N 37°49' W 122°24'4 3.6
2015-Sep-02 20:33N 37°52' W 122°27'0 0.4
2015-Sep-02 19:34N 37°52' W 122°27'5 5.1
2015-Sep-02 18:33N 37°48' W 122°24'1 1.1
2015-Sep-02 17:29N 37°49' W 122°25'0 0.0
2015-Sep-02 16:32N 37°49' W 122°25'0 0.0
2015-Sep-02 15:29N 37°49' W 122°25'0 0.0
2015-Sep-02 14:29N 37°49' W 122°25'0 0.0
2015-Sep-02 13:32N 37°49' W 122°25'0 0.0
2015-Sep-02 12:32N 37°49' W 122°25'0 0.0
2015-Sep-02 11:32N 37°49' W 122°25'0 0.0
2015-Sep-02 10:29N 37°49' W 122°25'0 0.0
2015-Sep-02 09:32N 37°49' W 122°25'0 0.0
2015-Sep-02 08:32N 37°49' W 122°25'0 0.0
2015-Sep-02 07:29N 37°49' W 122°25'0 0.0
2015-Sep-02 06:32N 37°49' W 122°25'0 0.0
2015-Sep-02 05:32N 37°49' W 122°25'0 0.0
2015-Sep-02 04:29N 37°49' W 122°25'0 0.0
2015-Sep-02 03:32N 37°49' W 122°25'0 0.0
2015-Sep-02 02:32N 37°49' W 122°25'0 0.0
2015-Sep-02 01:29N 37°49' W 122°25'0 0.0
2015-Sep-02 00:29N 37°49' W 122°25'0 0.0
2015-Sep-01 23:32N 37°49' W 122°25'0 0.0
2015-Sep-01 22:28N 37°49' W 122°25'0 0.3
2015-Sep-01 21:34N 37°49' W 122°25'3 3.2
2015-Sep-01 20:33N 37°51' W 122°27'1 0.8
2015-Sep-01 19:34N 37°52' W 122°27'4 4.0
2015-Sep-01 18:34N 37°49' W 122°24'0 0.3
2015-Sep-01 17:33N 37°49' W 122°25'0 0.0
2015-Sep-01 16:33N 37°49' W 122°25'0 0.0
2015-Sep-01 15:33N 37°49' W 122°25'0 0.0
2015-Sep-01 14:33N 37°49' W 122°25'0 0.0
2015-Sep-01 13:33N 37°49' W 122°25'0 0.0
2015-Sep-01 12:33N 37°49' W 122°25'0 0.0
2015-Sep-01 11:33N 37°49' W 122°25'0 0.0
2015-Sep-01 10:33N 37°49' W 122°25'0 0.0
2015-Sep-01 09:33N 37°49' W 122°25'0 0.0
2015-Sep-01 08:33N 37°49' W 122°25'0 0.0
2015-Sep-01 07:33N 37°49' W 122°25'0 0.0
2015-Sep-01 06:33N 37°49' W 122°25'0 0.0
2015-Sep-01 05:33N 37°49' W 122°25'0 0.0
2015-Sep-01 04:33N 37°49' W 122°25'0 0.0
2015-Sep-01 03:33N 37°49' W 122°25'0 0.0
2015-Sep-01 02:33N 37°49' W 122°25'3 3.3
2015-Sep-01 01:33N 37°51' W 122°27'1 1.0
2015-Sep-01 00:34N 37°51' W 122°29'4 4.2
2015-Aug-31 23:34N 37°49' W 122°25'4 3.8
2015-Aug-31 22:33N 37°51' W 122°28'4 3.9
2015-Aug-31 21:33N 37°49' W 122°25'2 2.1
2015-Aug-31 20:33N 37°49' W 122°27'3 3.4
2015-Aug-31 19:33N 37°49' W 122°23'1 1.3
2015-Aug-31 18:34N 37°49' W 122°25'0 0.1
2015-Aug-31 17:33N 37°49' W 122°25'0 0.0
2015-Aug-31 02:23N 37°49' W 122°25'2 2.1
2015-Aug-31 01:34N 37°49' W 122°27'2 1.7
2015-Aug-31 00:34N 37°49' W 122°25'0 0.1
2015-Aug-30 23:33N 37°49' W 122°25'3 2.8
2015-Aug-30 22:33N 37°49' W 122°28'3 2.8
2015-Aug-30 21:33N 37°49' W 122°25'3 2.5
2015-Aug-30 20:34N 37°49' W 122°28'3 3.3
2015-Aug-30 19:34N 37°49' W 122°24'1 0.9
2015-Aug-30 18:33N 37°49' W 122°25'0 0.2
2015-Aug-30 17:33N 37°49' W 122°25'0 0.0
2015-Aug-30 16:33N 37°49' W 122°25'0 0.0
2015-Aug-30 15:33N 37°49' W 122°25'0 0.0
2015-Aug-30 14:33N 37°49' W 122°25'0 0.0
2015-Aug-30 13:33N 37°49' W 122°25'0 0.0
2015-Aug-30 12:33N 37°49' W 122°25'0 0.0
2015-Aug-30 11:33N 37°49' W 122°25'0 0.0
2015-Aug-30 10:33N 37°49' W 122°25'0 0.0
2015-Aug-30 09:33N 37°49' W 122°25'0 0.0
2015-Aug-30 08:33N 37°49' W 122°25'0 0.0
2015-Aug-30 07:33N 37°49' W 122°25'0 0.0
2015-Aug-30 06:33N 37°49' W 122°25'0 0.0
2015-Aug-30 05:33N 37°49' W 122°25'0 0.0
2015-Aug-30 04:33N 37°49' W 122°25'0 0.0
2015-Aug-30 03:33N 37°49' W 122°25'0 0.0
2015-Aug-30 02:33N 37°49' W 122°25'3 2.8
2015-Aug-30 01:33N 37°49' W 122°28'3 2.8
2015-Aug-30 00:33N 37°49' W 122°25'0 0.0
2015-Aug-29 23:33N 37°49' W 122°25'3 3.1
2015-Aug-29 22:34N 37°49' W 122°28'3 3.1
2015-Aug-29 21:33N 37°49' W 122°25'3 2.6
2015-Aug-29 20:33N 37°49' W 122°28'3 3.2
2015-Aug-29 19:33N 37°49' W 122°24'1 0.7
2015-Aug-29 18:34N 37°49' W 122°25'0 0.2
2015-Aug-29 17:32N 37°49' W 122°25'0 0.0
2015-Aug-29 16:32N 37°49' W 122°25'0 0.0
2015-Aug-29 15:32N 37°49' W 122°25'0 0.0
2015-Aug-29 14:32N 37°49' W 122°25'0 0.0
2015-Aug-29 13:32N 37°49' W 122°25'0 0.0
2015-Aug-29 12:32N 37°49' W 122°25'0 0.0
2015-Aug-29 11:29N 37°49' W 122°25'0 0.0
2015-Aug-29 10:32N 37°49' W 122°25'0 0.0
2015-Aug-29 09:32N 37°49' W 122°25'0 0.0
2015-Aug-29 08:32N 37°49' W 122°25'0 0.0
2015-Aug-29 07:32N 37°49' W 122°25'0 0.0
2015-Aug-29 06:32N 37°49' W 122°25'0 0.0
2015-Aug-29 05:32N 37°49' W 122°25'0 0.0
2015-Aug-29 04:23N 37°49' W 122°25'0 0.0
2015-Aug-29 03:26N 37°49' W 122°25'0 0.0
2015-Aug-29 02:32N 37°49' W 122°25'0 0.0
2015-Aug-29 01:32N 37°49' W 122°25'0 0.0
2015-Aug-29 00:32N 37°49' W 122°25'0 0.0
2015-Aug-28 23:26N 37°49' W 122°25'0 0.0
2015-Aug-28 22:32N 37°49' W 122°25'1 0.6
2015-Aug-28 21:33N 37°49' W 122°24'4 3.6
2015-Aug-28 20:33N 37°52' W 122°27'1 0.6
2015-Aug-28 19:33N 37°52' W 122°27'5 4.7
2015-Aug-28 18:33N 37°48' W 122°24'1 0.6
2015-Aug-28 17:29N 37°49' W 122°25'0 0.0
2015-Aug-28 16:32N 37°49' W 122°25'0 0.0
2015-Aug-28 15:29N 37°49' W 122°25'0 0.0
2015-Aug-28 14:32N 37°49' W 122°25'0 0.0
2015-Aug-28 13:32N 37°49' W 122°25'0 0.0
2015-Aug-28 12:32N 37°49' W 122°25'0 0.0
2015-Aug-28 11:32N 37°49' W 122°25'0 0.0
2015-Aug-28 10:32N 37°49' W 122°25'0 0.0
2015-Aug-28 09:32N 37°49' W 122°25'0 0.0
2015-Aug-28 08:32N 37°49' W 122°25'0 0.0
2015-Aug-28 07:32N 37°49' W 122°25'0 0.0
2015-Aug-28 06:32N 37°49' W 122°25'0 0.0
2015-Aug-28 05:32N 37°49' W 122°25'0 0.0
2015-Aug-28 04:32N 37°49' W 122°25'0 0.0
2015-Aug-28 03:29N 37°49' W 122°25'0 0.0
2015-Aug-28 02:32N 37°49' W 122°25'2 1.6
2015-Aug-28 01:33N 37°49' W 122°27'2 1.6
2015-Aug-28 00:33N 37°49' W 122°25'0 0.0
2015-Aug-27 23:33N 37°49' W 122°25'2 2.2
2015-Aug-27 22:33N 37°49' W 122°27'2 2.1
2015-Aug-27 21:33N 37°49' W 122°25'2 2.1
2015-Aug-27 20:33N 37°49' W 122°27'2 1.8
2015-Aug-27 19:33N 37°50' W 122°25'1 1.3
2015-Aug-27 18:30N 37°49' W 122°25'0 0.0
2015-Aug-27 17:29N 37°49' W 122°25'0 0.0
2015-Aug-27 16:32N 37°49' W 122°25'0 0.0
2015-Aug-27 15:23N 37°49' W 122°25'0 0.0
2015-Aug-27 14:29N 37°49' W 122°25'0 0.0
2015-Aug-27 13:32N 37°49' W 122°25'0 0.0
2015-Aug-27 12:32N 37°49' W 122°25'0 0.0
2015-Aug-27 11:32N 37°49' W 122°25'0 0.0
2015-Aug-27 10:32N 37°49' W 122°25'0 0.0
2015-Aug-27 09:32N 37°49' W 122°25'0 0.0
2015-Aug-27 08:29N 37°49' W 122°25'0 0.0
2015-Aug-27 07:32N 37°49' W 122°25'0 0.0
2015-Aug-27 06:32N 37°49' W 122°25'0 0.0
2015-Aug-27 05:29N 37°49' W 122°25'0 0.0
2015-Aug-27 04:32N 37°49' W 122°25'0 0.0
2015-Aug-27 03:32N 37°49' W 122°25'0 0.0
2015-Aug-27 02:32N 37°49' W 122°25'2 2.5
2015-Aug-27 01:34N 37°49' W 122°28'2 2.3
2015-Aug-27 00:31N 37°49' W 122°25'0 0.0
2015-Aug-26 23:31N 37°49' W 122°25'3 3.1
2015-Aug-26 22:33N 37°49' W 122°28'3 2.8
2015-Aug-26 21:31N 37°49' W 122°25'3 3.1
2015-Aug-26 20:33N 37°49' W 122°28'3 3.5
2015-Aug-26 19:33N 37°49' W 122°24'1 0.6
2015-Aug-26 18:28N 37°49' W 122°25'0 0.0
2015-Aug-26 17:28N 37°49' W 122°25'0 0.0
2015-Aug-26 16:28N 37°49' W 122°25'0 0.0
2015-Aug-26 15:31N 37°49' W 122°25'0 0.0
2015-Aug-26 14:28N 37°49' W 122°25'  

Dump ship's entire track history